McKinney's Hourly Summary for Wednesday, July 11, 2018
Hour Temp
(f)
RH
(%)
Solar Rad.
(MJ/m2)
Rainfall
(in)
Wind
(mph)
7/11/2018 12:00 AM 79 72 0 0 0.14
7/11/2018 1:00 AM 77 75 0 0 0.04
7/11/2018 2:00 AM 75 82 0 0 0.09
7/11/2018 3:00 AM 75 86 0 0 0.09
7/11/2018 4:00 AM 74 87 0 0 0.05
7/11/2018 5:00 AM 74 96 0 0 0.02
7/11/2018 6:00 AM 74 98 0 0 0
7/11/2018 7:00 AM 74 97 0.03 0 0.57
7/11/2018 8:00 AM 75 97 0.15 0 1.56
7/11/2018 9:00 AM 77 89 0.37 0 3.36
7/11/2018 10:00 AM 80 79 0.83 0 4.3
7/11/2018 11:00 AM 83 63 1.96 0 4.08
7/11/2018 12:00 PM 88 54 2.71 0 3.52
7/11/2018 1:00 PM 91 45 2.7 0 5.41
7/11/2018 2:00 PM 93 38 2.5 0 4.78
7/11/2018 3:00 PM 94 42 2.54 0 6.53
7/11/2018 4:00 PM 95 37 2.7 0 7.11
7/11/2018 5:00 PM 97 32 2.24 0 4.78
7/11/2018 6:00 PM 93 33 0.99 0 2.3
7/11/2018 7:00 PM 92 47 0.59 0 5.18
7/11/2018 8:00 PM 89 55 0.47 0 7.28
7/11/2018 9:00 PM 86 58 0.04 0 4.21
7/11/2018 10:00 PM 83 64 0 0 4.27
7/11/2018 11:00 PM 81 68 0 0 3.68
Data Summary 83 66 20.82 0.00 3.06